Molengracht — PCJG — position and weather

sailwx.info

Track history (hours):
 
Tides and Currents Weather Stations Pressure Air Temp Water Temp Dewpoint Dewpoint Depression Visibility Wind Speed Wind Dir Waves Ship Positions

Molengracht

Last reported at 2017-Nov-19 23:50 UTC. Time now 2017-Dec-13 03:39 UTC.
Position S 19°45' E 116°54'.
Warning: this ship's position is 23 days out of date.

Length 143 m; draft 6.5 m.

Type: Cargo ship. MMSI: 246770000.

Date/timePositionNaut miles runAvg speedWind from/ knotsBaromVisibWave heightAir tempDewpointWater temp
2017-Nov-19 23:50S 19°45' E 116°54'514.5
2017-Nov-19 23:30S 19°44' E 116°59'714.5
2017-Nov-19 23:00S 19°41' E 117°06'714.6
2017-Nov-19 22:30S 19°39' E 117°13'1814.7
2017-Nov-19 21:16S 19°32' E 117°32'414.4
2017-Nov-19 21:00S 19°31' E 117°35'914.3
2017-Nov-19 20:22S 19°27' E 117°44'714.6
2017-Nov-19 19:52S 19°25' E 117°51'514.8
2017-Nov-19 19:30S 19°23' E 117°57'814.5
2017-Nov-19 18:56S 19°20' E 118°05'714.6
2017-Nov-19 18:25S 19°17' E 118°12'615.1
2017-Nov-19 18:00S 19°15' E 118°19'1615.0
2017-Nov-19 16:55S 19°09' E 118°35'715.0
2017-Nov-19 16:29S 19°07' E 118°41'714.6
2017-Nov-19 16:00S 19°04' E 118°48'714.6
2017-Nov-19 15:30S 19°02' E 118°55'4414.4
2017-Nov-19 12:26S 18°46' E 119°39'714.7
2017-Nov-19 11:56S 18°43' E 119°46'1914.8
2017-Nov-19 10:39S 18°37' E 120°05'315.1
2017-Nov-19 10:29S 18°36' E 120°08'3115.2
2017-Nov-19 08:25S 18°25' E 120°39'6815.5
2017-Nov-19 04:02S 17°60' E 121°45'  
Track history (hours):
 
Tides and Currents Weather Stations Pressure Air Temp Water Temp Dewpoint Dewpoint Depression Visibility Wind Speed Wind Dir Waves Ship Positions

Molengracht

Last reported at 2017-Nov-19 23:50 UTC. Time now 2017-Dec-13 03:39 UTC.
Position S 19°45' E 116°54'.
Warning: this ship's position is 23 days out of date.

Length 143 m; draft 6.5 m.

Type: Cargo ship. MMSI: 246770000.

Date/timePositionNaut miles runAvg speedWind from/ knotsBaromVisibWave heightAir tempDewpointWater temp
2017-Nov-19 23:50S 19°45' E 116°54'514.5
2017-Nov-19 23:30S 19°44' E 116°59'714.5
2017-Nov-19 23:00S 19°41' E 117°06'714.6
2017-Nov-19 22:30S 19°39' E 117°13'1814.7
2017-Nov-19 21:16S 19°32' E 117°32'414.4
2017-Nov-19 21:00S 19°31' E 117°35'914.3
2017-Nov-19 20:22S 19°27' E 117°44'714.6
2017-Nov-19 19:52S 19°25' E 117°51'514.8
2017-Nov-19 19:30S 19°23' E 117°57'814.5
2017-Nov-19 18:56S 19°20' E 118°05'714.6
2017-Nov-19 18:25S 19°17' E 118°12'615.1
2017-Nov-19 18:00S 19°15' E 118°19'1615.0
2017-Nov-19 16:55S 19°09' E 118°35'715.0
2017-Nov-19 16:29S 19°07' E 118°41'714.6
2017-Nov-19 16:00S 19°04' E 118°48'714.6
2017-Nov-19 15:30S 19°02' E 118°55'4414.4
2017-Nov-19 12:26S 18°46' E 119°39'714.7
2017-Nov-19 11:56S 18°43' E 119°46'1914.8
2017-Nov-19 10:39S 18°37' E 120°05'315.1
2017-Nov-19 10:29S 18°36' E 120°08'3115.2
2017-Nov-19 08:25S 18°25' E 120°39'6815.5
2017-Nov-19 04:02S 17°60' E 121°45'  

Dump ship's entire track history